createdAt,value
2022-09-10T00:00:41.969Z,-146.74
2022-09-10T00:01:39.002Z,-146.74
2022-09-10T00:02:38.975Z,-146.74
2022-09-10T00:03:38.930Z,-146.74
2022-09-10T00:04:39.071Z,-146.74
2022-09-10T00:05:38.859Z,-146.74
2022-09-10T00:06:38.881Z,-146.74
2022-09-10T00:07:38.842Z,-146.74
2022-09-10T00:08:38.952Z,-146.74
2022-09-10T00:09:38.820Z,-146.74
2022-09-10T00:10:38.854Z,-146.74
2022-09-10T00:11:38.794Z,-146.74
2022-09-10T00:12:38.796Z,-146.74
2022-09-10T00:13:38.752Z,-146.74
2022-09-10T00:14:38.736Z,-146.74
2022-09-10T00:15:38.735Z,-146.74
2022-09-10T00:16:38.812Z,-146.74
2022-09-10T00:17:38.713Z,-145.52
2022-09-10T00:18:38.822Z,-145.52
2022-09-10T00:19:41.670Z,-145.52
2022-09-10T00:20:41.688Z,-145.52
2022-09-10T00:21:38.666Z,-145.52
2022-09-10T00:22:38.637Z,-145.52
2022-09-10T00:23:38.619Z,-146.74
2022-09-10T00:24:38.607Z,-146.74
2022-09-10T00:25:38.585Z,-146.74
2022-09-10T00:26:38.619Z,-146.74
2022-09-10T00:27:38.558Z,-146.74
2022-09-10T00:28:38.727Z,-146.74
2022-09-10T00:29:38.590Z,-146.74
2022-09-10T00:30:38.560Z,-146.74
2022-09-10T00:31:38.602Z,-146.74
2022-09-10T00:32:38.490Z,-146.74
2022-09-10T00:33:38.470Z,-146.74
2022-09-10T00:34:38.481Z,-146.74
2022-09-10T00:35:38.443Z,-146.74
2022-09-10T00:36:38.432Z,-146.74
2022-09-10T00:37:38.572Z,-146.74
2022-09-10T00:38:38.457Z,-146.74
2022-09-10T00:39:41.430Z,-146.74
2022-09-10T00:40:41.474Z,-146.74
2022-09-10T00:41:38.384Z,-146.74
2022-09-10T00:42:38.396Z,-146.74
2022-09-10T00:43:38.386Z,-146.74
2022-09-10T00:44:38.365Z,-146.74
2022-09-10T00:45:38.398Z,-146.74
2022-09-10T00:46:38.328Z,-146.74
2022-09-10T00:47:38.339Z,-146.74
2022-09-10T00:48:38.364Z,-146.74
2022-09-10T00:49:38.287Z,-146.74
2022-09-10T00:50:38.285Z,-146.74
2022-09-10T00:51:38.229Z,-146.74
2022-09-10T00:52:39.921Z,-146.74
2022-09-10T00:53:38.228Z,-146.74
2022-09-10T00:54:38.220Z,-146.74
2022-09-10T00:55:38.257Z,-146.74
2022-09-10T00:56:38.169Z,-146.74
2022-09-10T00:57:38.179Z,-146.74
2022-09-10T00:58:38.302Z,-146.74
2022-09-10T00:59:41.176Z,-146.74
2022-09-10T01:00:41.223Z,-146.74
2022-09-10T01:01:38.197Z,-146.74
2022-09-10T01:02:38.071Z,-146.74
2022-09-10T01:03:38.090Z,-146.74
2022-09-10T01:04:38.070Z,-146.74
2022-09-10T01:05:38.070Z,-146.74
2022-09-10T01:06:38.032Z,-146.74
2022-09-10T01:07:38.000Z,-146.74
2022-09-10T01:08:38.286Z,-147.96
2022-09-10T01:09:37.987Z,-147.96
2022-09-10T01:10:37.966Z,-146.74
2022-09-10T01:11:38.011Z,-147.96
2022-09-10T01:12:37.944Z,-147.96
2022-09-10T01:13:37.925Z,-146.74
2022-09-10T01:14:37.906Z,-146.74
2022-09-10T01:15:37.897Z,-146.74
2022-09-10T01:16:37.957Z,-146.74
2022-09-10T01:17:37.897Z,-146.74
2022-09-10T01:18:38.149Z,-146.74
2022-09-10T01:19:40.878Z,-146.74
2022-09-10T01:20:40.835Z,-146.74
2022-09-10T01:21:37.849Z,-146.74
2022-09-10T01:22:37.809Z,-146.74
2022-09-10T01:23:37.831Z,-146.74
2022-09-10T01:24:37.802Z,-146.74
2022-09-10T01:25:37.814Z,-146.74
2022-09-10T01:26:37.800Z,-146.74
2022-09-10T01:27:37.745Z,-146.74
2022-09-10T01:28:37.884Z,-146.74
2022-09-10T01:29:37.812Z,-146.74
2022-09-10T01:30:37.731Z,-146.74
2022-09-10T01:31:37.746Z,-146.74
2022-09-10T01:32:37.722Z,-146.74
2022-09-10T01:33:37.650Z,-146.74
2022-09-10T01:34:37.656Z,-146.74
2022-09-10T01:35:37.629Z,-146.74
2022-09-10T01:36:37.623Z,-146.74
2022-09-10T01:37:37.753Z,-146.74
2022-09-10T01:38:37.664Z,-146.74
2022-09-10T01:39:40.687Z,-146.74
2022-09-10T01:40:40.573Z,-146.74
2022-09-10T01:41:37.545Z,-145.52
2022-09-10T01:42:37.546Z,-145.52
2022-09-10T01:43:38.267Z,-145.52
2022-09-10T01:44:37.499Z,-145.52
2022-09-10T01:45:37.517Z,-145.52
2022-09-10T01:46:37.521Z,-145.52
2022-09-10T01:47:37.440Z,-145.52
2022-09-10T01:48:38.446Z,-145.52
2022-09-10T01:49:37.478Z,-145.52
2022-09-10T01:50:37.411Z,-145.52
2022-09-10T01:51:37.407Z,-145.52
2022-09-10T01:52:37.381Z,-145.52
2022-09-10T01:53:38.353Z,-145.52
2022-09-10T01:54:37.371Z,-145.52
2022-09-10T01:55:37.334Z,-146.74
2022-09-10T01:56:37.373Z,-146.74
2022-09-10T01:57:37.321Z,-146.74
2022-09-10T01:58:38.191Z,-146.74
2022-09-10T01:59:40.358Z,-146.74
2022-09-10T02:00:40.308Z,-146.74
2022-09-10T02:01:37.266Z,-146.74
2022-09-10T02:02:37.293Z,-146.74
2022-09-10T02:03:37.996Z,-146.74
2022-09-10T02:04:37.229Z,-146.74
2022-09-10T02:05:37.258Z,-145.52
2022-09-10T02:06:37.198Z,-145.52
2022-09-10T02:07:37.167Z,-145.52
2022-09-10T02:08:38.212Z,-146.74
2022-09-10T02:09:37.149Z,-146.74
2022-09-10T02:10:37.139Z,-146.74
2022-09-10T02:11:37.150Z,-146.74
2022-09-10T02:12:37.089Z,-146.74
2022-09-10T02:13:38.057Z,-146.74
2022-09-10T02:14:37.071Z,-146.74
2022-09-10T02:15:37.100Z,-146.74
2022-09-10T02:16:37.080Z,-146.74
2022-09-10T02:17:37.064Z,-146.74
2022-09-10T02:18:38.151Z,-146.74
2022-09-10T02:19:40.011Z,-146.74
2022-09-10T02:20:40.022Z,-146.74
2022-09-10T02:21:36.992Z,-146.74
2022-09-10T02:22:37.040Z,-146.74
2022-09-10T02:23:37.934Z,-146.74
2022-09-10T02:24:36.953Z,-146.74
2022-09-10T02:25:36.950Z,-146.74
2022-09-10T02:26:36.922Z,-146.74
2022-09-10T02:27:36.894Z,-146.74
2022-09-10T02:28:38.208Z,-146.74
2022-09-10T02:29:36.887Z,-147.96
2022-09-10T02:30:36.878Z,-147.96
2022-09-10T02:31:36.879Z,-147.96
2022-09-10T02:32:36.843Z,-147.96
2022-09-10T02:33:37.777Z,-147.96
2022-09-10T02:34:36.977Z,-147.96
2022-09-10T02:35:36.809Z,-147.96
2022-09-10T02:36:36.791Z,-147.96
2022-09-10T02:37:36.768Z,-147.96
2022-09-10T02:38:37.535Z,-147.96
2022-09-10T02:39:39.830Z,-147.96
2022-09-10T02:40:39.746Z,-147.96
2022-09-10T02:41:36.714Z,-147.96
2022-09-10T02:42:36.691Z,-147.96
2022-09-10T02:43:37.440Z,-147.96
2022-09-10T02:44:36.664Z,-147.96
2022-09-10T02:45:36.713Z,-147.96
2022-09-10T02:46:36.712Z,-147.96
2022-09-10T02:47:36.643Z,-147.96
2022-09-10T02:48:37.376Z,-147.96
2022-09-10T02:49:36.609Z,-147.96
2022-09-10T02:50:36.582Z,-147.96
2022-09-10T02:51:36.597Z,-147.96
2022-09-10T02:52:36.603Z,-147.96
2022-09-10T02:53:37.304Z,-147.96
2022-09-10T02:54:36.542Z,-147.96
2022-09-10T02:55:36.515Z,-147.96
2022-09-10T02:56:36.504Z,-147.96
2022-09-10T02:57:36.545Z,-147.96
2022-09-10T02:58:36.535Z,-147.96
2022-09-10T02:59:39.470Z,-147.96
2022-09-10T03:00:39.456Z,-147.96
2022-09-10T03:01:36.438Z,-147.96
2022-09-10T03:02:36.428Z,-147.96
2022-09-10T03:03:36.477Z,-147.96
2022-09-10T03:04:36.405Z,-147.96
2022-09-10T03:05:36.388Z,-147.96
2022-09-10T03:06:36.395Z,-147.96
2022-09-10T03:07:36.353Z,-147.96
2022-09-10T03:08:36.367Z,-147.96
2022-09-10T03:09:36.399Z,-147.96
2022-09-10T03:10:36.335Z,-147.96
2022-09-10T03:11:36.310Z,-147.96
2022-09-10T03:12:36.290Z,-147.96
2022-09-10T03:13:36.283Z,-147.96
2022-09-10T03:14:36.292Z,-147.96
2022-09-10T03:15:36.311Z,-147.96
2022-09-10T03:16:36.366Z,-147.96
2022-09-10T03:17:36.250Z,-147.96
2022-09-10T03:18:36.278Z,-147.96
2022-09-10T03:19:39.193Z,-147.96
2022-09-10T03:20:39.353Z,-147.96
2022-09-10T03:21:36.193Z,-147.96
2022-09-10T03:22:36.144Z,-147.96
2022-09-10T03:23:37.455Z,-147.96
2022-09-10T03:24:36.127Z,-147.96
2022-09-10T03:25:36.172Z,-147.96
2022-09-10T03:26:36.143Z,-147.96
2022-09-10T03:27:36.104Z,-147.96
2022-09-10T03:28:36.067Z,-147.96
2022-09-10T03:29:36.057Z,-147.96
2022-09-10T03:30:36.037Z,-146.74
2022-09-10T03:31:36.062Z,-146.74
2022-09-10T03:32:36.094Z,-146.74
2022-09-10T03:33:35.996Z,-146.74
2022-09-10T03:34:35.972Z,-146.74
2022-09-10T03:35:35.960Z,-146.74
2022-09-10T03:36:35.952Z,-146.74
2022-09-10T03:37:35.942Z,-146.74
2022-09-10T03:38:35.962Z,-146.74
2022-09-10T03:39:38.969Z,-146.74
2022-09-10T03:40:38.905Z,-146.74
2022-09-10T03:41:35.913Z,-146.74
2022-09-10T03:42:35.862Z,-146.74
2022-09-10T03:43:35.857Z,-146.74
2022-09-10T03:44:36.045Z,-146.74
2022-09-10T03:45:35.860Z,-146.74
2022-09-10T03:46:35.845Z,-146.74
2022-09-10T03:47:35.830Z,-146.74
2022-09-10T03:48:35.838Z,-146.74
2022-09-10T03:49:35.774Z,-146.74
2022-09-10T03:50:35.795Z,-146.74
2022-09-10T03:51:35.740Z,-146.74
2022-09-10T03:52:35.728Z,-146.74
2022-09-10T03:53:35.771Z,-146.74
2022-09-10T03:54:35.725Z,-146.74
2022-09-10T03:55:35.687Z,-146.74
2022-09-10T03:56:35.677Z,-145.52
2022-09-10T03:57:35.668Z,-145.52
2022-09-10T03:58:35.719Z,-145.52
2022-09-10T03:59:38.700Z,-145.52
2022-09-10T04:00:38.733Z,-145.52
2022-09-10T04:01:35.608Z,-146.74
2022-09-10T04:02:35.600Z,-146.74
2022-09-10T04:03:35.581Z,-146.74
2022-09-10T04:04:35.567Z,-146.74
2022-09-10T04:05:35.645Z,-146.74
2022-09-10T04:06:35.560Z,-146.74
2022-09-10T04:07:35.523Z,-146.74
2022-09-10T04:08:35.573Z,-146.74
2022-09-10T04:09:35.499Z,-146.74
2022-09-10T04:10:35.492Z,-146.74
2022-09-10T04:11:35.513Z,-146.74
2022-09-10T04:12:35.454Z,-146.74
2022-09-10T04:13:35.445Z,-146.74
2022-09-10T04:14:35.427Z,-146.74
2022-09-10T04:15:35.494Z,-146.74
2022-09-10T04:16:35.630Z,-146.74
2022-09-10T04:17:35.429Z,-146.74
2022-09-10T04:18:35.481Z,-146.74
2022-09-10T04:19:38.364Z,-146.74
2022-09-10T04:20:38.370Z,-146.74
2022-09-10T04:21:35.358Z,-146.74
2022-09-10T04:22:35.359Z,-146.74
2022-09-10T04:23:35.310Z,-146.74
2022-09-10T04:24:35.287Z,-146.74
2022-09-10T04:25:35.312Z,-146.74
2022-09-10T04:26:35.290Z,-146.74
2022-09-10T04:27:35.310Z,-146.74
2022-09-10T04:28:35.240Z,-146.74
2022-09-10T04:29:35.250Z,-146.74
2022-09-10T04:30:35.213Z,-146.74
2022-09-10T04:31:35.220Z,-146.74
2022-09-10T04:32:35.174Z,-146.74
2022-09-10T04:33:35.219Z,-146.74
2022-09-10T04:34:35.161Z,-146.74
2022-09-10T04:35:35.142Z,-146.74
2022-09-10T04:36:35.122Z,-146.74
2022-09-10T04:37:35.113Z,-146.74
2022-09-10T04:38:35.189Z,-146.74
2022-09-10T04:39:38.113Z,-146.74
2022-09-10T04:40:38.093Z,-146.74
2022-09-10T04:41:35.062Z,-146.74
2022-09-10T04:42:35.053Z,-146.74
2022-09-10T04:43:35.046Z,-146.74
2022-09-10T04:44:35.035Z,-146.74
2022-09-10T04:45:35.042Z,-146.74
2022-09-10T04:46:35.035Z,-146.74
2022-09-10T04:47:34.979Z,-146.74
2022-09-10T04:48:35.019Z,-146.74
2022-09-10T04:49:34.946Z,-146.74
2022-09-10T04:50:34.929Z,-146.74
2022-09-10T04:51:34.937Z,-146.74
2022-09-10T04:52:34.949Z,-146.74
2022-09-10T04:53:34.907Z,-146.74
2022-09-10T04:54:34.869Z,-146.74
2022-09-10T04:55:34.870Z,-146.74
2022-09-10T04:56:34.859Z,-146.74
2022-09-10T04:57:34.848Z,-146.74
2022-09-10T04:58:38.600Z,-146.74
2022-09-10T04:59:37.810Z,-146.74
2022-09-10T05:00:37.834Z,-146.74
2022-09-10T05:01:34.832Z,-146.74
2022-09-10T05:02:34.762Z,-146.74
2022-09-10T05:03:34.765Z,-146.74
2022-09-10T05:04:34.770Z,-146.74
2022-09-10T05:05:34.741Z,-146.74
2022-09-10T05:06:34.711Z,-146.74
2022-09-10T05:07:34.723Z,-146.74
2022-09-10T05:08:34.783Z,-146.74
2022-09-10T05:09:34.667Z,-146.74
2022-09-10T05:10:34.654Z,-146.74
2022-09-10T05:11:34.704Z,-146.74
2022-09-10T05:12:34.629Z,-146.74
2022-09-10T05:13:34.615Z,-146.74
2022-09-10T05:14:34.614Z,-146.74
2022-09-10T05:15:34.597Z,-146.74
2022-09-10T05:16:34.618Z,-146.74
2022-09-10T05:17:34.606Z,-146.74
2022-09-10T05:18:34.558Z,-147.96
2022-09-10T05:19:37.538Z,-147.96
2022-09-10T05:20:37.548Z,-146.74
2022-09-10T05:21:34.517Z,-146.74
2022-09-10T05:22:40.092Z,-146.74
2022-09-10T05:23:35.500Z,-147.96
2022-09-10T05:24:34.470Z,-147.96
2022-09-10T05:25:34.466Z,-147.96
2022-09-10T05:26:34.440Z,-147.96
2022-09-10T05:27:34.423Z,-147.96
2022-09-10T05:28:34.463Z,-147.96
2022-09-10T05:29:34.428Z,-147.96
2022-09-10T05:30:34.391Z,-147.96
2022-09-10T05:31:34.395Z,-147.96
2022-09-10T05:32:34.352Z,-147.96
2022-09-10T05:33:34.505Z,-147.96
2022-09-10T05:34:34.341Z,-147.96
2022-09-10T05:35:34.334Z,-147.96
2022-09-10T05:36:34.306Z,-147.96
2022-09-10T05:37:34.292Z,-149.17
2022-09-10T05:38:38.102Z,-149.17
2022-09-10T05:39:38.333Z,-149.17
2022-09-10T05:40:37.276Z,-149.17
2022-09-10T05:41:34.262Z,-149.17
2022-09-10T05:42:34.235Z,-149.17
2022-09-10T05:43:34.226Z,-150.39
2022-09-10T05:44:34.229Z,-150.39
2022-09-10T05:45:34.237Z,-150.39
2022-09-10T05:46:34.167Z,-150.39
2022-09-10T05:47:34.168Z,-151.61
2022-09-10T05:48:35.338Z,-151.61
2022-09-10T05:49:34.148Z,-151.61
2022-09-10T05:50:34.119Z,-152.83
2022-09-10T05:51:34.101Z,-152.83
2022-09-10T05:52:34.081Z,-152.83
2022-09-10T05:53:34.070Z,-152.83
2022-09-10T05:54:34.109Z,-152.83
2022-09-10T05:55:34.072Z,-152.83
2022-09-10T05:56:34.042Z,-152.83
2022-09-10T05:57:34.013Z,-152.83
2022-09-10T05:58:34.023Z,-154.04
2022-09-10T05:59:36.986Z,-154.04
2022-09-10T06:00:37.150Z,-154.04
2022-09-10T06:01:33.963Z,-154.04
2022-09-10T06:02:34.044Z,-154.04
2022-09-10T06:03:33.934Z,-154.04
2022-09-10T06:04:33.943Z,-154.04
2022-09-10T06:05:33.922Z,-154.04
2022-09-10T06:06:33.925Z,-154.04
2022-09-10T06:07:33.896Z,-154.04
2022-09-10T06:08:33.882Z,-154.04
2022-09-10T06:09:33.855Z,-154.04
2022-09-10T06:10:33.986Z,-154.04
2022-09-10T06:11:33.826Z,-154.04
2022-09-10T06:12:33.815Z,-152.83
2022-09-10T06:13:33.803Z,-154.04
2022-09-10T06:14:33.787Z,-152.83
2022-09-10T06:15:33.779Z,-152.83
2022-09-10T06:16:34.015Z,-152.83
2022-09-10T06:17:33.749Z,-154.04
2022-09-10T06:18:33.749Z,-154.04
2022-09-10T06:19:36.723Z,-154.04
2022-09-10T06:20:36.736Z,-154.04
2022-09-10T06:21:33.698Z,-154.04
2022-09-10T06:22:33.811Z,-154.04
2022-09-10T06:23:33.673Z,-154.04
2022-09-10T06:24:33.664Z,-154.04
2022-09-10T06:25:33.632Z,-154.04
2022-09-10T06:26:33.636Z,-154.04
2022-09-10T06:27:33.613Z,-155.26
2022-09-10T06:28:33.773Z,-155.26
2022-09-10T06:29:33.577Z,-155.26
2022-09-10T06:30:33.607Z,-155.26
2022-09-10T06:31:33.555Z,-155.26
2022-09-10T06:32:33.544Z,-155.26
2022-09-10T06:33:33.535Z,-155.26
2022-09-10T06:34:33.547Z,-155.26
2022-09-10T06:35:33.495Z,-155.26
2022-09-10T06:36:33.543Z,-155.26
2022-09-10T06:37:33.496Z,-155.26
2022-09-10T06:38:33.467Z,-155.26
2022-09-10T06:39:36.704Z,-156.48
2022-09-10T06:40:36.449Z,-156.48
2022-09-10T06:41:33.436Z,-156.48
2022-09-10T06:42:33.409Z,-156.48
2022-09-10T06:43:33.419Z,-156.48
2022-09-10T06:44:33.399Z,-157.70
2022-09-10T06:45:33.426Z,-157.70
2022-09-10T06:47:08.397Z,-157.70
2022-09-10T06:48:39.146Z,-157.70
2022-09-10T06:49:34.331Z,-157.70
2022-09-10T06:50:33.315Z,-157.70
2022-09-10T06:51:33.281Z,-157.70
2022-09-10T06:52:33.322Z,-157.70
2022-09-10T06:53:33.262Z,-157.70
2022-09-10T06:54:33.243Z,-157.70
2022-09-10T06:55:33.383Z,-157.70
2022-09-10T06:56:33.236Z,-157.70
2022-09-10T06:57:33.205Z,-157.70
2022-09-10T06:58:33.202Z,-157.70
2022-09-10T06:59:36.175Z,-157.70
2022-09-10T07:00:36.313Z,-157.70
2022-09-10T07:01:33.254Z,-157.70
2022-09-10T07:02:33.183Z,-157.70
2022-09-10T07:03:33.117Z,-157.70
2022-09-10T07:04:33.106Z,-158.91
2022-09-10T07:05:33.088Z,-158.91
2022-09-10T07:06:33.108Z,-158.91
2022-09-10T07:07:33.067Z,-157.70
2022-09-10T07:08:33.116Z,-157.70
2022-09-10T07:09:33.115Z,-157.70
2022-09-10T07:10:33.029Z,-157.70
2022-09-10T07:11:33.410Z,-157.70
2022-09-10T07:12:33.027Z,-156.48
2022-09-10T07:13:32.990Z,-156.48
2022-09-10T07:14:33.121Z,-156.48
2022-09-10T07:15:33.047Z,-156.48
2022-09-10T07:16:32.954Z,-156.48
2022-09-10T07:17:32.932Z,-156.48
2022-09-10T07:18:32.933Z,-156.48
2022-09-10T07:19:35.937Z,-156.48
2022-09-10T07:20:35.934Z,-156.48
2022-09-10T07:21:32.875Z,-156.48
2022-09-10T07:22:32.878Z,-155.26
2022-09-10T07:23:32.845Z,-156.48
2022-09-10T07:24:32.875Z,-156.48
2022-09-10T07:25:32.857Z,-156.48
2022-09-10T07:26:32.825Z,-156.48
2022-09-10T07:27:32.797Z,-156.48
2022-09-10T07:28:32.808Z,-156.48
2022-09-10T07:29:32.786Z,-156.48
2022-09-10T07:30:32.807Z,-156.48
2022-09-10T07:31:32.749Z,-156.48
2022-09-10T07:32:32.758Z,-156.48
2022-09-10T07:33:32.715Z,-156.48
2022-09-10T07:34:32.879Z,-156.48
2022-09-10T07:35:32.690Z,-156.48
2022-09-10T07:36:32.679Z,-156.48
2022-09-10T07:37:32.659Z,-156.48
2022-09-10T07:38:32.644Z,-156.48
2022-09-10T07:39:35.685Z,-156.48
2022-09-10T07:40:35.662Z,-156.48
2022-09-10T07:41:32.601Z,-156.48
2022-09-10T07:42:32.582Z,-156.48
2022-09-10T07:43:32.583Z,-156.48
2022-09-10T07:44:32.754Z,-155.26
2022-09-10T07:45:32.592Z,-155.26
2022-09-10T07:46:32.542Z,-155.26
2022-09-10T07:47:32.523Z,-155.26
2022-09-10T07:48:32.504Z,-155.26
2022-09-10T07:49:32.503Z,-155.26
2022-09-10T07:50:32.517Z,-155.26
2022-09-10T07:51:32.467Z,-155.26
2022-09-10T07:52:32.455Z,-155.26
2022-09-10T07:53:32.443Z,-156.48
2022-09-10T07:54:32.428Z,-156.48
2022-09-10T07:55:32.446Z,-156.48
2022-09-10T07:56:32.442Z,-156.48
2022-09-10T07:57:32.411Z,-156.48
2022-09-10T07:58:32.460Z,-156.48
2022-09-10T07:59:35.347Z,-156.48
2022-09-10T08:00:35.353Z,-156.48
2022-09-10T08:01:32.364Z,-157.70
2022-09-10T08:02:32.437Z,-156.48
2022-09-10T08:03:32.293Z,-156.48
2022-09-10T08:04:36.524Z,-156.48
2022-09-10T08:05:32.280Z,-156.48
2022-09-10T08:06:32.257Z,-156.48
2022-09-10T08:07:32.255Z,-156.48
2022-09-10T08:08:32.417Z,-156.48
2022-09-10T08:09:32.222Z,-157.70
2022-09-10T08:10:32.192Z,-156.48
2022-09-10T08:11:32.173Z,-156.48
2022-09-10T08:12:32.183Z,-157.70
2022-09-10T08:13:32.194Z,-157.70
2022-09-10T08:14:32.208Z,-157.70
2022-09-10T08:15:32.125Z,-157.70
2022-09-10T08:16:32.125Z,-157.70
2022-09-10T08:17:32.135Z,-158.91
2022-09-10T08:18:32.114Z,-158.91
2022-09-10T08:19:35.226Z,-158.91
2022-09-10T08:20:35.077Z,-158.91
2022-09-10T08:21:32.050Z,-158.91
2022-09-10T08:22:32.046Z,-158.91
2022-09-10T08:23:32.028Z,-158.91
2022-09-10T08:24:32.011Z,-158.91
2022-09-10T08:25:32.028Z,-160.13
2022-09-10T08:26:32.130Z,-160.13
2022-09-10T08:27:31.977Z,-160.13
2022-09-10T08:28:31.981Z,-160.13
2022-09-10T08:29:31.941Z,-160.13
2022-09-10T08:30:31.943Z,-160.13
2022-09-10T08:31:31.921Z,-160.13
2022-09-10T08:32:31.942Z,-160.13
2022-09-10T08:33:31.901Z,-160.13
2022-09-10T08:34:31.895Z,-160.13
2022-09-10T08:35:32.613Z,-160.13
2022-09-10T08:36:31.873Z,-160.13
2022-09-10T08:37:31.994Z,-160.13
2022-09-10T08:38:31.861Z,-160.13
2022-09-10T08:39:34.870Z,-160.13
2022-09-10T08:40:34.813Z,-160.13
2022-09-10T08:41:31.778Z,-160.13
2022-09-10T08:42:31.770Z,-160.13
2022-09-10T08:43:31.913Z,-160.13
2022-09-10T08:44:31.737Z,-160.13
2022-09-10T08:45:31.808Z,-160.13
2022-09-10T08:46:31.709Z,-160.13
2022-09-10T08:47:31.696Z,-160.13
2022-09-10T08:48:31.694Z,-160.13
2022-09-10T08:49:31.698Z,-160.13
2022-09-10T08:50:31.662Z,-160.13
2022-09-10T08:51:31.659Z,-160.13
2022-09-10T08:52:31.649Z,-160.13
2022-09-10T08:53:31.641Z,-161.35
2022-09-10T08:54:31.631Z,-161.35
2022-09-10T08:55:31.632Z,-161.35
2022-09-10T08:56:31.585Z,-161.35
2022-09-10T08:57:31.562Z,-161.35
2022-09-10T08:58:31.613Z,-161.35
2022-09-10T08:59:34.588Z,-161.35
2022-09-10T09:00:34.546Z,-161.35
2022-09-10T09:01:31.614Z,-161.35
2022-09-10T09:02:47.848Z,-161.35
2022-09-10T09:03:32.484Z,-161.35
2022-09-10T09:04:31.485Z,-161.35
2022-09-10T09:05:31.486Z,-161.35
2022-09-10T09:06:31.465Z,-161.35
2022-09-10T09:07:31.450Z,-161.35
2022-09-10T09:08:31.435Z,-161.35
2022-09-10T09:09:31.425Z,-161.35
2022-09-10T09:10:31.419Z,-161.35
2022-09-10T09:11:31.539Z,-161.35
2022-09-10T09:12:31.390Z,-161.35
2022-09-10T09:13:31.389Z,-161.35
2022-09-10T09:14:31.349Z,-161.35
2022-09-10T09:15:31.377Z,-161.35
2022-09-10T09:16:31.340Z,-161.35
2022-09-10T09:17:31.330Z,-161.35
2022-09-10T09:18:31.379Z,-161.35
2022-09-10T09:19:34.294Z,-161.35
2022-09-10T09:20:34.306Z,-161.35
2022-09-10T09:21:31.333Z,-161.35
2022-09-10T09:22:31.251Z,-161.35
2022-09-10T09:23:31.233Z,-161.35
2022-09-10T09:24:31.253Z,-161.35
2022-09-10T09:25:31.217Z,-161.35
2022-09-10T09:26:31.197Z,-161.35
2022-09-10T09:27:31.212Z,-161.35
2022-09-10T09:28:31.244Z,-161.35
2022-09-10T09:29:31.196Z,-161.35
2022-09-10T09:30:31.126Z,-161.35
2022-09-10T09:31:31.177Z,-161.35
2022-09-10T09:32:31.097Z,-161.35
2022-09-10T09:33:31.116Z,-161.35
2022-09-10T09:34:31.108Z,-161.35
2022-09-10T09:35:31.109Z,-161.35
2022-09-10T09:36:31.048Z,-161.35
2022-09-10T09:37:31.048Z,-161.35
2022-09-10T09:38:31.031Z,-161.35
2022-09-10T09:39:34.042Z,-161.35
2022-09-10T09:40:34.051Z,-161.35
2022-09-10T09:41:31.029Z,-161.35
2022-09-10T09:42:30.978Z,-161.35
2022-09-10T09:43:30.971Z,-161.35
2022-09-10T09:44:30.942Z,-161.35
2022-09-10T09:45:31.027Z,-161.35
2022-09-10T09:46:31.119Z,-161.35
2022-09-10T09:47:30.939Z,-161.35
2022-09-10T09:48:30.923Z,-161.35
2022-09-10T09:49:30.893Z,-161.35
2022-09-10T09:50:30.873Z,-161.35
2022-09-10T09:51:30.864Z,-161.35
2022-09-10T09:52:30.894Z,-161.35
2022-09-10T09:53:30.836Z,-161.35
2022-09-10T09:55:31.866Z,-161.35
2022-09-10T09:56:30.837Z,-161.35
2022-09-10T09:57:30.780Z,-162.57
2022-09-10T09:58:30.808Z,-162.57
2022-09-10T09:59:33.738Z,-162.57
2022-09-10T10:00:33.740Z,-162.57
2022-09-10T10:01:31.416Z,-162.57
2022-09-10T10:02:30.741Z,-162.57
2022-09-10T10:03:30.690Z,-162.57
2022-09-10T10:04:30.683Z,-162.57
2022-09-10T10:05:30.681Z,-162.57
2022-09-10T10:06:30.651Z,-162.57
2022-09-10T10:07:30.677Z,-162.57
2022-09-10T10:08:30.626Z,-162.57
2022-09-10T10:09:30.643Z,-162.57
2022-09-10T10:10:30.611Z,-162.57
2022-09-10T10:11:30.583Z,-162.57
2022-09-10T10:12:30.594Z,-162.57
2022-09-10T10:13:30.563Z,-162.57
2022-09-10T10:14:30.567Z,-162.57
2022-09-10T10:15:30.604Z,-162.57
2022-09-10T10:16:30.518Z,-162.57
2022-09-10T10:17:30.506Z,-162.57
2022-09-10T10:18:30.603Z,-162.57
2022-09-10T10:19:33.506Z,-162.57
2022-09-10T10:20:33.473Z,-162.57
2022-09-10T10:21:30.438Z,-162.57
2022-09-10T10:22:30.410Z,-162.57
2022-09-10T10:23:31.143Z,-162.57
2022-09-10T10:24:30.432Z,-162.57
2022-09-10T10:25:30.392Z,-162.57
2022-09-10T10:26:30.419Z,-162.57
2022-09-10T10:27:30.384Z,-162.57
2022-09-10T10:28:30.343Z,-162.57
2022-09-10T10:29:30.464Z,-163.78
2022-09-10T10:30:30.295Z,-163.78
2022-09-10T10:31:30.306Z,-163.78
2022-09-10T10:32:30.378Z,-163.78
2022-09-10T10:33:30.278Z,-163.78
2022-09-10T10:34:31.227Z,-163.78
2022-09-10T10:35:30.308Z,-163.78
2022-09-10T10:36:30.267Z,-163.78
2022-09-10T10:37:30.234Z,-163.78
2022-09-10T10:38:30.233Z,-163.78
2022-09-10T10:39:33.210Z,-163.78
2022-09-10T10:40:33.172Z,-163.78
2022-09-10T10:41:30.329Z,-163.78
2022-09-10T10:42:30.160Z,-163.78
2022-09-10T10:43:30.142Z,-163.78
2022-09-10T10:44:31.072Z,-163.78
2022-09-10T10:45:30.125Z,-163.78
2022-09-10T10:46:30.130Z,-163.78
2022-09-10T10:47:30.238Z,-163.78
2022-09-10T10:48:30.053Z,-163.78
2022-09-10T10:49:30.793Z,-162.57
2022-09-10T10:50:30.084Z,-162.57
2022-09-10T10:51:30.011Z,-162.57
2022-09-10T10:52:29.994Z,-162.57
2022-09-10T10:53:30.056Z,-162.57
2022-09-10T10:54:30.725Z,-162.57
2022-09-10T10:55:29.999Z,-162.57
2022-09-10T10:56:29.989Z,-162.57
2022-09-10T10:57:29.946Z,-162.57
2022-09-10T10:58:30.071Z,-162.57
2022-09-10T10:59:33.656Z,-162.57
2022-09-10T11:00:32.938Z,-162.57
2022-09-10T11:01:30.061Z,-162.57
2022-09-10T11:02:29.932Z,-162.57
2022-09-10T11:03:29.840Z,-162.57
2022-09-10T11:04:30.922Z,-162.57
2022-09-10T11:05:29.830Z,-162.57
2022-09-10T11:06:29.851Z,-162.57
2022-09-10T11:07:37.354Z,-162.57
2022-09-10T11:08:29.771Z,-162.57
2022-09-10T11:09:29.773Z,-162.57
2022-09-10T11:10:29.806Z,-162.57
2022-09-10T11:11:29.744Z,-162.57
2022-09-10T11:12:29.721Z,-162.57
2022-09-10T11:13:29.706Z,-163.78
2022-09-10T11:14:30.675Z,-163.78
2022-09-10T11:15:29.669Z,-162.57
2022-09-10T11:16:29.664Z,-162.57
2022-09-10T11:17:29.656Z,-162.57
2022-09-10T11:18:29.655Z,-162.57
2022-09-10T11:19:33.598Z,-162.57
2022-09-10T11:20:32.658Z,-162.57
2022-09-10T11:21:29.589Z,-162.57
2022-09-10T11:22:29.567Z,-162.57
2022-09-10T11:23:29.578Z,-162.57
2022-09-10T11:24:30.291Z,-162.57
2022-09-10T11:25:29.559Z,-163.78
2022-09-10T11:26:29.570Z,-162.57
2022-09-10T11:27:29.490Z,-163.78
2022-09-10T11:28:29.490Z,-163.78
2022-09-10T11:29:30.221Z,-163.78
2022-09-10T11:30:29.442Z,-163.78
2022-09-10T11:31:29.456Z,-163.78
2022-09-10T11:32:29.570Z,-163.78
2022-09-10T11:33:29.427Z,-163.78
2022-09-10T11:34:30.158Z,-163.78
2022-09-10T11:35:29.396Z,-163.78
2022-09-10T11:36:29.363Z,-163.78
2022-09-10T11:37:29.374Z,-163.78
2022-09-10T11:38:29.486Z,-163.78
2022-09-10T11:39:33.482Z,-163.78
2022-09-10T11:40:32.336Z,-163.78
2022-09-10T11:41:29.306Z,-163.78
2022-09-10T11:42:29.294Z,-163.78
2022-09-10T11:43:29.279Z,-163.78
2022-09-10T11:44:32.352Z,-163.78
2022-09-10T11:45:30.256Z,-163.78
2022-09-10T11:46:29.269Z,-163.78
2022-09-10T11:47:29.269Z,-163.78
2022-09-10T11:48:29.208Z,-163.78
2022-09-10T11:49:29.197Z,-163.78
2022-09-10T11:50:34.322Z,-163.78
2022-09-10T11:51:30.171Z,-163.78
2022-09-10T11:52:29.189Z,-163.78
2022-09-10T11:53:29.141Z,-163.78
2022-09-10T11:54:29.124Z,-163.78
2022-09-10T11:55:29.122Z,-162.57
2022-09-10T11:56:29.158Z,-162.57
2022-09-10T11:57:29.084Z,-162.57
2022-09-10T11:58:29.074Z,-162.57
2022-09-10T11:59:32.803Z,-162.57
2022-09-10T12:00:32.054Z,-162.57
2022-09-10T12:01:29.023Z,-162.57
2022-09-10T12:02:29.060Z,-162.57
2022-09-10T12:03:29.030Z,-162.57
2022-09-10T12:04:28.979Z,-162.57
2022-09-10T12:05:28.968Z,-162.57
2022-09-10T12:06:28.947Z,-162.57
2022-09-10T12:07:28.987Z,-162.57